Time;durP1;ratioP1;P1;durP2;ratioP2;P2;SDS_P1;SDS_P2;PMS_P1;PMS_P2;Temp;Humidity;BMP_temperature;BMP_pressure;BME280_temperature;BME280_humidity;BME280_pressure;Samples;Min_cycle;Max_cycle;Signal;HPM_P1;HPM_P2
2023/12/02 00:01:38;;;;;;;20.00;10.50;;;;;;;;;;103848;1290;545458;-77
2023/12/02 00:05:31;;;;;;;20.10;11.70;;;;;;;;;;103172;1300;545297;-77
2023/12/02 00:08:51;;;;;;;21.20;12.50;;;;;;;;;;103628;1294;547787;-80
2023/12/02 00:12:38;;;;;;;24.30;15.10;;;;;;;;;;103562;1292;545477;-77
2023/12/02 00:16:16;;;;;;;;;;;;;;;;;;;;;
2023/12/02 00:19:49;;;;;;;20.40;11.70;;;;;;;;;;103685;1295;549201;-79
2023/12/02 00:23:41;;;;;;;20.20;12.10;;;;;;;;;;103667;1295;547808;-84
2023/12/02 00:27:29;;;;;;;19.60;11.00;;;;;;;;;;103644;1289;545297;-77
2023/12/02 00:31:08;;;;;;;18.00;9.90;;;;;;;;;;103822;1294;547406;-77
2023/12/02 00:34:30;;;;;;;14.50;7.90;;;;;;;;;;103741;1297;545871;-82
2023/12/02 00:37:59;;;;;;;13.70;7.10;;;;;;;;;;103894;1290;544972;-76
2023/12/02 00:41:46;;;;;;;;;;;;;;;;;;;;;
2023/12/02 00:45:19;;;;;;;12.00;5.90;;;;;;;;;;103632;1295;547829;-78
2023/12/02 00:48:56;;;;;;;11.20;6.10;;;;;;;;;;103545;1294;546299;-77
2023/12/02 00:52:50;;;;;;;12.00;6.40;;;;;;;;;;103735;1292;544987;-77
2023/12/02 00:56:30;;;;;;;14.10;8.50;;;;;;;;;;103672;1292;549531;-76
2023/12/02 01:00:17;;;;;;;14.40;8.90;;;;;;;;;;103954;1290;545403;-78
2023/12/02 01:04:08;;;;;;;16.60;10.30;;;;;;;;;;103483;1296;545242;-79
2023/12/02 01:08:02;;;;;;;18.20;10.90;;;;;;;;;;103620;1291;546550;-79
2023/12/02 01:11:20;;;;;;;22.20;14.30;;;;;;;;;;103692;1296;545218;-80
2023/12/02 01:15:15;;;;;;;26.20;16.60;;;;;;;;;;103376;1299;545231;-82
2023/12/02 01:18:49;;;;;;;24.80;14.60;;;;;;;;;;103592;1295;547706;-78
2023/12/02 01:22:14;;;;;;;25.40;15.40;;;;;;;;;;103487;1292;547927;-76
2023/12/02 01:25:42;;;;;;;28.20;16.00;;;;;;;;;;103748;1292;544891;-80
2023/12/02 01:29:29;;;;;;;31.00;18.30;;;;;;;;;;104551;1289;547960;-77
2023/12/02 01:33:01;;;;;;;31.50;18.30;;;;;;;;;;104039;1293;545757;-78
2023/12/02 01:36:42;;;;;;;28.40;16.70;;;;;;;;;;103632;1292;547904;-81
2023/12/02 01:40:23;;;;;;;23.40;14.50;;;;;;;;;;103163;1297;546282;-78
2023/12/02 01:44:09;;;;;;;26.60;16.10;;;;;;;;;;104135;1286;545601;-76
2023/12/02 01:47:30;;;;;;;27.60;16.60;;;;;;;;;;103715;1289;547924;-77
2023/12/02 01:51:22;;;;;;;;;;;;;;;;;;;;;
2023/12/02 01:55:02;;;;;;;29.10;16.10;;;;;;;;;;103638;1298;545927;-76
2023/12/02 01:58:25;;;;;;;25.00;14.20;;;;;;;;;;103725;1296;545291;-78
2023/12/02 02:01:56;;;;;;;24.80;15.10;;;;;;;;;;103780;1292;545013;-76
2023/12/02 02:05:38;;;;;;;24.80;14.60;;;;;;;;;;103899;1288;545492;-77
2023/12/02 02:09:11;;;;;;;27.10;15.00;;;;;;;;;;103825;1289;545529;-76
2023/12/02 02:12:49;;;;;;;25.90;14.80;;;;;;;;;;103882;1288;544992;-77
2023/12/02 02:16:31;;;;;;;23.20;14.60;;;;;;;;;;103624;1295;547887;-76
2023/12/02 02:20:04;;;;;;;27.00;15.60;;;;;;;;;;103563;1298;545055;-75
2023/12/02 02:23:57;;;;;;;24.70;13.90;;;;;;;;;;104108;1285;544939;-76
2023/12/02 02:27:29;;;;;;;24.20;14.20;;;;;;;;;;103794;1291;545686;-76
2023/12/02 02:30:52;;;;;;;24.80;13.80;;;;;;;;;;103881;1289;544995;-78
2023/12/02 02:34:55;;;;;;;24.20;13.10;;;;;;;;;;103502;1305;546515;-76
2023/12/02 02:38:20;;;;;;;23.40;13.30;;;;;;;;;;103738;1292;545051;-77
2023/12/02 02:42:12;;;;;;;25.70;14.60;;;;;;;;;;103902;1289;546390;-77
2023/12/02 02:45:26;;;;;;;27.30;15.00;;;;;;;;;;103756;1292;545416;-76
2023/12/02 02:49:03;;;;;;;26.70;14.70;;;;;;;;;;103932;1289;544764;-78
2023/12/02 02:52:40;;;;;;;29.80;16.80;;;;;;;;;;103959;1288;544954;-76
2023/12/02 02:56:26;;;;;;;32.60;20.00;;;;;;;;;;103778;1291;544950;-76
2023/12/02 02:59:56;;;;;;;37.50;22.10;;;;;;;;;;103616;1291;545743;-75
2023/12/02 03:03:33;;;;;;;40.10;23.50;;;;;;;;;;103809;1290;544978;-76
2023/12/02 03:07:20;;;;;;;40.50;24.30;;;;;;;;;;103804;1289;544795;-76
2023/12/02 03:10:47;;;;;;;44.60;27.40;;;;;;;;;;103565;1295;544842;-74
2023/12/02 03:14:42;;;;;;;49.90;31.20;;;;;;;;;;103947;1288;545421;-81
2023/12/02 03:18:09;;;;;;;52.10;30.80;;;;;;;;;;103637;1291;547823;-78
2023/12/02 03:21:45;;;;;;;47.20;28.30;;;;;;;;;;103711;1291;545210;-75
2023/12/02 03:25:17;;;;;;;45.80;27.80;;;;;;;;;;103743;1294;544850;-74
2023/12/02 03:28:55;;;;;;;47.90;29.00;;;;;;;;;;103888;1289;545607;-75
2023/12/02 03:32:42;;;;;;;50.20;30.30;;;;;;;;;;103644;1292;549261;-78
2023/12/02 03:36:10;;;;;;;46.60;28.70;;;;;;;;;;103916;1290;545393;-77
2023/12/02 03:39:52;;;;;;;44.80;26.40;;;;;;;;;;103487;1294;547789;-77
2023/12/02 03:43:45;;;;;;;42.10;26.20;;;;;;;;;;104003;1287;544744;-78
2023/12/02 03:47:09;;;;;;;44.10;26.70;;;;;;;;;;103583;1295;547807;-77
2023/12/02 03:50:39;;;;;;;41.90;25.70;;;;;;;;;;103879;1288;544955;-75
2023/12/02 03:54:18;;;;;;;43.90;27.00;;;;;;;;;;103760;1289;544739;-75
2023/12/02 03:57:54;;;;;;;41.30;24.90;;;;;;;;;;103773;1292;545069;-76
2023/12/02 04:01:32;;;;;;;43.20;26.00;;;;;;;;;;103805;1290;545432;-75
2023/12/02 04:05:13;;;;;;;40.90;26.60;;;;;;;;;;103873;1292;545252;-74
2023/12/02 04:08:47;;;;;;;47.20;30.30;;;;;;;;;;103961;1288;545551;-75
2023/12/02 04:12:42;;;;;;;51.30;32.20;;;;;;;;;;103737;1291;547932;-80
2023/12/02 04:16:02;;;;;;;50.40;31.00;;;;;;;;;;103751;1289;545080;-75
2023/12/02 04:19:39;;;;;;;55.30;32.40;;;;;;;;;;103609;1295;545078;-75
2023/12/02 04:23:16;;;;;;;51.40;33.90;;;;;;;;;;103581;1294;545730;-74
2023/12/02 04:27:00;;;;;;;57.30;37.70;;;;;;;;;;103633;1292;546489;-76
2023/12/02 04:30:37;;;;;;;61.30;39.90;;;;;;;;;;103900;1287;548342;-75
2023/12/02 04:34:09;;;;;;;55.60;35.60;;;;;;;;;;104290;1289;545091;-75
2023/12/02 04:37:47;;;;;;;62.50;39.60;;;;;;;;;;103827;1289;544870;-77
2023/12/02 04:41:24;;;;;;;66.30;41.10;;;;;;;;;;103885;1291;544997;-77
2023/12/02 04:45:09;;;;;;;42.30;26.80;;;;;;;;;;103528;1295;548269;-74
2023/12/02 04:48:39;;;;;;;43.60;26.80;;;;;;;;;;103789;1290;545172;-74
2023/12/02 04:52:26;;;;;;;;;;;;;;;;;;;;;
2023/12/02 04:55:55;;;;;;;42.40;27.50;;;;;;;;;;103834;1290;545620;-74
2023/12/02 04:59:31;;;;;;;43.40;28.90;;;;;;;;;;103760;1288;544940;-76
2023/12/02 05:03:31;;;;;;;46.20;31.00;;;;;;;;;;103736;1292;545589;-78
2023/12/02 05:07:12;;;;;;;44.60;29.70;;;;;;;;;;103797;1289;548278;-75
2023/12/02 05:10:27;;;;;;;40.50;27.60;;;;;;;;;;103788;1291;547146;-75
2023/12/02 05:14:01;;;;;;;46.60;29.70;;;;;;;;;;103503;1294;544815;-75
2023/12/02 05:17:43;;;;;;;47.50;31.50;;;;;;;;;;103893;1289;545949;-75
2023/12/02 05:21:22;;;;;;;49.60;32.60;;;;;;;;;;103648;1291;547821;-75
2023/12/02 05:24:54;;;;;;;50.00;31.40;;;;;;;;;;103799;1289;545284;-76
2023/12/02 05:28:30;;;;;;;47.80;31.20;;;;;;;;;;103797;1291;544993;-75
2023/12/02 05:32:12;;;;;;;48.20;31.10;;;;;;;;;;103768;1291;546032;-78
2023/12/02 05:35:46;;;;;;;48.10;32.60;;;;;;;;;;103834;1289;545883;-78
2023/12/02 05:39:26;;;;;;;52.30;33.80;;;;;;;;;;104633;1282;544772;-77
2023/12/02 05:43:01;;;;;;;51.70;32.60;;;;;;;;;;104070;1292;545665;-75
2023/12/02 05:46:39;;;;;;;49.70;31.70;;;;;;;;;;103883;1289;545643;-78
2023/12/02 05:50:18;;;;;;;53.70;34.90;;;;;;;;;;103765;1289;548418;-74
2023/12/02 05:54:00;;;;;;;56.90;38.30;;;;;;;;;;103567;1291;547768;-74
2023/12/02 05:57:42;;;;;;;63.90;42.00;;;;;;;;;;103859;1294;545818;-76
2023/12/02 06:01:07;;;;;;;72.80;45.50;;;;;;;;;;103591;1293;545231;-75
2023/12/02 06:04:48;;;;;;;66.80;42.80;;;;;;;;;;103746;1289;544936;-75
2023/12/02 06:08:29;;;;;;;65.40;41.30;;;;;;;;;;103471;1294;548028;-77
2023/12/02 06:12:00;;;;;;;60.20;40.50;;;;;;;;;;103791;1291;544926;-74
2023/12/02 06:15:41;;;;;;;67.50;43.20;;;;;;;;;;103791;1289;546516;-74
2023/12/02 06:19:21;;;;;;;68.20;44.80;;;;;;;;;;103728;1289;545813;-74
2023/12/02 06:22:53;;;;;;;64.00;41.30;;;;;;;;;;103774;1292;545432;-75
2023/12/02 06:26:30;;;;;;;67.00;41.60;;;;;;;;;;103691;1293;545096;-74
2023/12/02 06:30:09;;;;;;;67.10;43.80;;;;;;;;;;103721;1290;545168;-79
2023/12/02 06:33:42;;;;;;;71.40;45.00;;;;;;;;;;104041;1286;545606;-75
2023/12/02 06:37:24;;;;;;;69.50;44.90;;;;;;;;;;103758;1291;544972;-74
2023/12/02 06:41:00;;;;;;;67.40;43.60;;;;;;;;;;103738;1291;544846;-76
2023/12/02 06:44:43;;;;;;;63.20;40.80;;;;;;;;;;103744;1289;548099;-74
2023/12/02 06:48:15;;;;;;;65.30;42.10;;;;;;;;;;103734;1292;545550;-77
2023/12/02 06:51:54;;;;;;;69.30;45.80;;;;;;;;;;103731;1291;545094;-74
2023/12/02 06:55:31;;;;;;;70.90;46.90;;;;;;;;;;103852;1289;544921;-76
2023/12/02 06:59:07;;;;;;;67.50;43.70;;;;;;;;;;103865;1289;544781;-77
2023/12/02 07:02:45;;;;;;;70.50;46.90;;;;;;;;;;104483;1286;545352;-74
2023/12/02 07:06:28;;;;;;;69.30;46.80;;;;;;;;;;103591;1294;547755;-78
2023/12/02 07:09:59;;;;;;;72.60;48.60;;;;;;;;;;103750;1291;544706;-75
2023/12/02 07:13:38;;;;;;;80.30;52.90;;;;;;;;;;104229;1285;545521;-74
2023/12/02 07:17:15;;;;;;;77.20;52.10;;;;;;;;;;103847;1288;545022;-74
2023/12/02 07:20:52;;;;;;;64.10;43.10;;;;;;;;;;103705;1292;544926;-78
2023/12/02 07:24:29;;;;;;;62.60;41.70;;;;;;;;;;103888;1290;544955;-75
2023/12/02 07:28:07;;;;;;;61.70;42.10;;;;;;;;;;103769;1288;545384;-75
2023/12/02 07:31:45;;;;;;;67.50;46.50;;;;;;;;;;103774;1289;544983;-73
2023/12/02 07:35:23;;;;;;;62.90;41.60;;;;;;;;;;103845;1289;545555;-77
2023/12/02 07:39:02;;;;;;;70.70;48.10;;;;;;;;;;103518;1298;544786;-75
2023/12/02 07:42:39;;;;;;;67.40;44.80;;;;;;;;;;103682;1295;545485;-77
2023/12/02 07:46:14;;;;;;;64.80;43.40;;;;;;;;;;103647;1295;545526;-75
2023/12/02 07:49:55;;;;;;;64.40;43.60;;;;;;;;;;103753;1291;546148;-75
2023/12/02 07:53:29;;;;;;;63.50;42.80;;;;;;;;;;103766;1292;545435;-78
2023/12/02 07:57:08;;;;;;;61.30;41.40;;;;;;;;;;103854;1289;544994;-74
2023/12/02 08:00:44;;;;;;;65.40;43.90;;;;;;;;;;103780;1292;545292;-75
2023/12/02 08:04:34;;;;;;;85.70;53.80;;;;;;;;;;103761;1289;544959;-74
2023/12/02 08:07:59;;;;;;;73.90;47.20;;;;;;;;;;103959;1289;545815;-75
2023/12/02 08:11:39;;;;;;;80.00;50.80;;;;;;;;;;103779;1292;545072;-76
2023/12/02 08:15:14;;;;;;;66.90;45.40;;;;;;;;;;104212;1288;544854;-75
2023/12/02 08:18:48;;;;;;;61.00;41.20;;;;;;;;;;103876;1289;545512;-76
2023/12/02 08:22:34;;;;;;;61.60;43.70;;;;;;;;;;103810;1305;545346;-74
2023/12/02 08:26:17;;;;;;;60.50;41.90;;;;;;;;;;103591;1291;548122;-76
2023/12/02 08:29:54;;;;;;;62.90;42.10;;;;;;;;;;103806;1291;545212;-75
2023/12/02 08:33:24;;;;;;;57.60;39.30;;;;;;;;;;103732;1293;545068;-74
2023/12/02 08:40:36;;;;;;;56.80;37.70;;;;;;;;;;103792;1288;544917;-78
2023/12/02 08:44:14;;;;;;;54.10;37.60;;;;;;;;;;103768;1296;545888;-75
2023/12/02 08:47:52;;;;;;;57.60;39.70;;;;;;;;;;103742;1291;544981;-75
2023/12/02 08:51:56;;;;;;;58.70;38.50;;;;;;;;;;103762;1292;549206;-78
2023/12/02 08:55:09;;;;;;;56.60;37.80;;;;;;;;;;104259;1285;545209;-77
2023/12/02 08:58:43;;;;;;;58.60;39.20;;;;;;;;;;103742;1292;545720;-78
2023/12/02 09:02:21;;;;;;;57.90;39.40;;;;;;;;;;104407;1285;545135;-76
2023/12/02 09:05:59;;;;;;;61.60;40.90;;;;;;;;;;104120;1286;545940;-75
2023/12/02 09:09:36;;;;;;;67.00;44.80;;;;;;;;;;103629;1292;545122;-77
2023/12/02 09:13:32;;;;;;;56.70;37.40;;;;;;;;;;103977;1292;544852;-77
2023/12/02 09:16:51;;;;;;;52.00;35.50;;;;;;;;;;103773;1292;544859;-75
2023/12/02 09:20:29;;;;;;;51.80;35.60;;;;;;;;;;103748;1292;545628;-75
2023/12/02 09:24:26;;;;;;;56.30;37.60;;;;;;;;;;103801;1289;545461;-79
2023/12/02 09:28:05;;;;;;;55.40;40.00;;;;;;;;;;103781;1291;544972;-75
2023/12/02 09:31:41;;;;;;;57.30;39.30;;;;;;;;;;103719;1292;546227;-75
2023/12/02 09:35:20;;;;;;;58.20;37.90;;;;;;;;;;103672;1294;549229;-78
2023/12/02 09:39:09;;;;;;;55.00;37.50;;;;;;;;;;103481;1292;546626;-76
2023/12/02 09:42:19;;;;;;;57.60;38.10;;;;;;;;;;103673;1295;547012;-76
2023/12/02 09:46:24;;;;;;;58.40;39.80;;;;;;;;;;104545;1282;545290;-77
2023/12/02 09:49:38;;;;;;;62.70;42.00;;;;;;;;;;103892;1289;545885;-76
2023/12/02 09:53:09;;;;;;;63.60;43.20;;;;;;;;;;103790;1292;545059;-80
2023/12/02 09:57:05;;;;;;;56.30;38.80;;;;;;;;;;103801;1289;545456;-77
2023/12/02 10:00:26;;;;;;;58.80;40.70;;;;;;;;;;103782;1291;545048;-79
2023/12/02 10:04:02;;;;;;;58.70;43.40;;;;;;;;;;103798;1291;545079;-74
2023/12/02 10:07:38;;;;;;;62.60;43.20;;;;;;;;;;103778;1292;544993;-79
2023/12/02 10:11:33;;;;;;;68.80;45.10;;;;;;;;;;103523;1297;548048;-78
2023/12/02 10:14:59;;;;;;;62.90;41.50;;;;;;;;;;103870;1289;544902;-80
2023/12/02 10:18:32;;;;;;;63.90;42.40;;;;;;;;;;103839;1295;545461;-75
2023/12/02 10:22:37;;;;;;;67.30;44.60;;;;;;;;;;103795;1295;545079;-78
2023/12/02 10:26:04;;;;;;;66.00;46.70;;;;;;;;;;103645;1292;545227;-78
2023/12/02 10:29:57;;;;;;;70.40;46.20;;;;;;;;;;104121;1286;544993;-76
2023/12/02 10:33:09;;;;;;;69.50;47.90;;;;;;;;;;103719;1289;545249;-80
2023/12/02 10:37:02;;;;;;;67.70;45.70;;;;;;;;;;103644;1292;545820;-76
2023/12/02 10:40:29;;;;;;;63.60;45.30;;;;;;;;;;103551;1293;548058;-75
2023/12/02 10:44:03;;;;;;;62.40;43.80;;;;;;;;;;104062;1288;545522;-76
2023/12/02 10:47:44;;;;;;;65.40;46.10;;;;;;;;;;104234;1291;547230;-75
2023/12/02 10:51:35;;;;;;;60.90;41.40;;;;;;;;;;103550;1292;545481;-82
2023/12/02 10:54:52;;;;;;;60.80;41.70;;;;;;;;;;103713;1290;545828;-81
2023/12/02 10:58:35;;;;;;;56.50;39.50;;;;;;;;;;103689;1292;547204;-77
2023/12/02 11:02:36;;;;;;;59.40;41.50;;;;;;;;;;104122;1289;547990;-77
2023/12/02 11:06:01;;;;;;;59.20;42.80;;;;;;;;;;103595;1292;546291;-82
2023/12/02 11:09:53;;;;;;;56.60;40.80;;;;;;;;;;103721;1294;546117;-76
2023/12/02 11:13:04;;;;;;;53.70;37.80;;;;;;;;;;103578;1292;549129;-76
2023/12/02 11:17:15;;;;;;;56.90;40.10;;;;;;;;;;103879;1290;547801;-80
2023/12/02 11:20:38;;;;;;;55.70;38.50;;;;;;;;;;103505;1297;545513;-78
2023/12/02 11:28:09;;;;;;;54.50;38.30;;;;;;;;;;103666;1293;544960;-77
2023/12/02 11:31:55;;;;;;;52.40;36.80;;;;;;;;;;104133;1286;547764;-83
2023/12/02 11:35:07;;;;;;;52.70;35.00;;;;;;;;;;103800;1291;545155;-76
2023/12/02 11:38:59;;;;;;;52.50;36.20;;;;;;;;;;103588;1292;549160;-74
2023/12/02 11:42:40;;;;;;;45.30;33.20;;;;;;;;;;103653;1294;545580;-79
2023/12/02 11:46:18;;;;;;;54.30;37.90;;;;;;;;;;103671;1289;549310;-76
2023/12/02 11:49:50;;;;;;;54.40;36.20;;;;;;;;;;103712;1295;544945;-78
2023/12/02 11:53:16;;;;;;;45.50;31.00;;;;;;;;;;103687;1297;548080;-80
2023/12/02 11:57:00;;;;;;;40.60;28.30;;;;;;;;;;103654;1295;545347;-81
2023/12/02 12:00:49;;;;;;;43.10;30.00;;;;;;;;;;104155;1282;549502;-86
2023/12/02 12:04:24;;;;;;;43.90;31.30;;;;;;;;;;103640;1298;546095;-77
2023/12/02 12:08:05;;;;;;;40.80;27.70;;;;;;;;;;103604;1291;548003;-76
2023/12/02 12:11:41;;;;;;;51.90;34.20;;;;;;;;;;103827;1295;546123;-81
2023/12/02 12:15:13;;;;;;;48.60;32.40;;;;;;;;;;103608;1295;546530;-79
2023/12/02 12:19:25;;;;;;;40.10;27.00;;;;;;;;;;103551;1298;545704;-81
2023/12/02 12:22:50;;;;;;;42.70;29.00;;;;;;;;;;103786;1289;548043;-80
2023/12/02 12:26:16;;;;;;;41.70;27.10;;;;;;;;;;103727;1291;547995;-77
2023/12/02 12:29:34;;;;;;;38.40;26.40;;;;;;;;;;103859;1289;545315;-76
2023/12/02 12:33:34;;;;;;;36.00;24.90;;;;;;;;;;103419;1301;545505;-77
2023/12/02 12:36:45;;;;;;;35.90;25.20;;;;;;;;;;103776;1290;545194;-76
2023/12/02 12:40:53;;;;;;;41.20;26.50;;;;;;;;;;103703;1294;545550;-82
2023/12/02 12:44:28;;;;;;;36.10;23.70;;;;;;;;;;103707;1294;546196;-84
2023/12/02 12:48:00;;;;;;;36.30;21.00;;;;;;;;;;104257;1285;545563;-78
2023/12/02 12:51:40;;;;;;;24.60;15.80;;;;;;;;;;103800;1294;545588;-88
2023/12/02 12:55:27;;;;;;;25.30;16.10;;;;;;;;;;103623;1291;545447;-78
2023/12/02 12:59:00;;;;;;;21.50;13.50;;;;;;;;;;103808;1288;548879;-80
2023/12/02 13:02:55;;;;;;;28.20;16.70;;;;;;;;;;103609;1295;549034;-80
2023/12/02 13:06:34;;;;;;;22.50;12.80;;;;;;;;;;103937;1290;546460;-79
2023/12/02 13:09:48;;;;;;;27.60;17.50;;;;;;;;;;103393;1298;547889;-82
2023/12/02 13:13:29;;;;;;;24.60;16.90;;;;;;;;;;103708;1294;545325;-81
2023/12/02 13:17:16;;;;;;;27.30;18.50;;;;;;;;;;103857;1291;549053;-77
2023/12/02 13:20:57;;;;;;;33.40;21.80;;;;;;;;;;103618;1297;545283;-76
2023/12/02 13:24:53;;;;;;;25.90;15.30;;;;;;;;;;103651;1288;544977;-76
2023/12/02 13:28:11;;;;;;;28.10;18.40;;;;;;;;;;103700;1295;548038;-83
2023/12/02 13:31:27;;;;;;;27.90;17.80;;;;;;;;;;103679;1289;545457;-79
2023/12/02 13:35:06;;;;;;;26.80;19.40;;;;;;;;;;104042;1295;547788;-75
2023/12/02 13:39:07;;;;;;;37.20;22.70;;;;;;;;;;103840;1294;545234;-84
2023/12/02 13:42:35;;;;;;;40.70;25.30;;;;;;;;;;104132;1286;545088;-84
2023/12/02 13:46:02;;;;;;;55.80;34.80;;;;;;;;;;103670;1295;548057;-77
2023/12/02 13:49:36;;;;;;;53.90;31.00;;;;;;;;;;103769;1289;546958;-76
2023/12/02 13:53:35;;;;;;;70.60;35.00;;;;;;;;;;104325;1285;548323;-76
2023/12/02 13:56:57;;;;;;;62.50;30.40;;;;;;;;;;103536;1291;547968;-82
2023/12/02 14:00:53;;;;;;;55.10;28.00;;;;;;;;;;103484;1297;545467;-81
2023/12/02 14:04:27;;;;;;;48.70;27.10;;;;;;;;;;103852;1292;551867;-77
2023/12/02 14:07:47;;;;;;;53.70;30.40;;;;;;;;;;103685;1292;545815;-77
2023/12/02 14:11:16;;;;;;;59.90;30.50;;;;;;;;;;103937;1287;545122;-75
2023/12/02 14:15:03;;;;;;;51.90;26.70;;;;;;;;;;103776;1290;545106;-76
2023/12/02 14:22:29;;;;;;;46.30;29.10;;;;;;;;;;103768;1292;545244;-75
2023/12/02 14:26:58;;;;;;;50.00;30.10;;;;;;;;;;104109;1291;545165;-75
2023/12/02 14:30:10;;;;;;;;;;;;;;;;;;;;;
2023/12/02 14:33:41;;;;;;;43.70;25.20;;;;;;;;;;103667;1296;545428;-77
2023/12/02 14:37:17;;;;;;;40.70;24.50;;;;;;;;;;103742;1295;546714;-78
2023/12/02 14:51:25;;;;;;;32.90;20.20;;;;;;;;;;104216;1288;550337;-79
2023/12/02 14:54:30;;;;;;;28.90;17.60;;;;;;;;;;103913;1295;545388;-75
2023/12/02 14:58:28;;;;;;;31.30;20.60;;;;;;;;;;103677;1292;544951;-75
2023/12/02 15:02:00;;;;;;;49.00;28.10;;;;;;;;;;103543;1295;545441;-79
2023/12/02 15:05:07;;;;;;;59.10;30.70;;;;;;;;;;103648;1295;545375;-77
2023/12/02 15:12:54;;;;;;;34.70;21.20;;;;;;;;;;103718;1292;545166;-76
2023/12/02 15:16:44;;;;;;;34.10;20.90;;;;;;;;;;103671;1303;549052;-76
2023/12/02 15:20:15;;;;;;;44.00;28.30;;;;;;;;;;103818;1289;544848;-76
2023/12/02 15:24:18;;;;;;;37.30;23.60;;;;;;;;;;103450;1294;547593;-76
2023/12/02 15:31:12;;;;;;;52.90;29.60;;;;;;;;;;103763;1292;545944;-76
2023/12/02 15:34:47;;;;;;;36.60;23.10;;;;;;;;;;103281;1297;545033;-75
2023/12/02 15:39:03;;;;;;;;;;;;;;;;;;;;;
2023/12/02 15:42:01;;;;;;;31.70;19.00;;;;;;;;;;103691;1292;545143;-80
2023/12/02 15:45:38;;;;;;;31.70;19.20;;;;;;;;;;103873;1289;546351;-75
2023/12/02 15:49:46;;;;;;;32.00;19.80;;;;;;;;;;103665;1292;544898;-77
2023/12/02 15:53:11;;;;;;;31.90;20.20;;;;;;;;;;103922;1294;546207;-78
2023/12/02 15:56:41;;;;;;;29.40;17.70;;;;;;;;;;103648;1299;546432;-76
2023/12/02 16:00:08;;;;;;;26.50;16.50;;;;;;;;;;103816;1289;545544;-76
2023/12/02 16:03:48;;;;;;;29.50;19.20;;;;;;;;;;103808;1289;544732;-75
2023/12/02 16:07:40;;;;;;;26.60;17.10;;;;;;;;;;103787;1290;548974;-81
2023/12/02 16:11:03;;;;;;;25.20;16.50;;;;;;;;;;103913;1292;544944;-76
2023/12/02 16:15:06;;;;;;;27.50;16.70;;;;;;;;;;103679;1295;549465;-77
2023/12/02 16:18:29;;;;;;;22.30;13.90;;;;;;;;;;103706;1292;548101;-84
2023/12/02 16:21:56;;;;;;;22.30;14.40;;;;;;;;;;103873;1292;545426;-76
2023/12/02 16:25:35;;;;;;;21.60;12.90;;;;;;;;;;104016;1292;548122;-76
2023/12/02 16:29:16;;;;;;;21.60;13.40;;;;;;;;;;103725;1293;548050;-78
2023/12/02 16:32:46;;;;;;;34.00;18.50;;;;;;;;;;103717;1292;544966;-76
2023/12/02 16:36:40;;;;;;;37.00;21.60;;;;;;;;;;103745;1291;545408;-79
2023/12/02 16:40:19;;;;;;;31.90;18.50;;;;;;;;;;103744;1289;544856;-76
2023/12/02 16:43:45;;;;;;;19.70;11.70;;;;;;;;;;103772;1289;545324;-76
2023/12/02 16:48:02;;;;;;;39.20;24.50;;;;;;;;;;103735;1292;546369;-86
2023/12/02 16:51:16;;;;;;;21.10;11.90;;;;;;;;;;104176;1291;549241;-76
2023/12/02 16:54:36;;;;;;;19.10;10.50;;;;;;;;;;103894;1291;545014;-77
2023/12/02 16:58:43;;;;;;;18.10;9.80;;;;;;;;;;103699;1297;546187;-81
2023/12/02 17:01:57;;;;;;;16.40;9.60;;;;;;;;;;103665;1292;547962;-82
2023/12/02 17:09:32;;;;;;;13.00;7.10;;;;;;;;;;103625;1294;547811;-77
2023/12/02 17:12:50;;;;;;;15.00;8.70;;;;;;;;;;103770;1289;545107;-77
2023/12/02 17:16:30;;;;;;;15.20;8.60;;;;;;;;;;103710;1291;546542;-76
2023/12/02 17:20:00;;;;;;;18.00;10.50;;;;;;;;;;103962;1292;544898;-77
2023/12/02 17:23:49;;;;;;;14.10;7.70;;;;;;;;;;103536;1295;549417;-86
2023/12/02 17:27:32;;;;;;;16.10;9.00;;;;;;;;;;103885;1292;545773;-76
2023/12/02 17:30:48;;;;;;;20.20;11.20;;;;;;;;;;103976;1289;545835;-76
2023/12/02 17:34:51;;;;;;;27.70;14.10;;;;;;;;;;103779;1289;545551;-76
2023/12/02 17:38:19;;;;;;;32.70;17.10;;;;;;;;;;103991;1289;547994;-76
2023/12/02 17:41:59;;;;;;;23.70;13.50;;;;;;;;;;103878;1292;545040;-77
2023/12/02 17:45:34;;;;;;;14.10;8.00;;;;;;;;;;104292;1286;544797;-76
2023/12/02 17:49:10;;;;;;;15.60;9.50;;;;;;;;;;103902;1296;545615;-84
2023/12/02 17:52:57;;;;;;;15.20;8.40;;;;;;;;;;103463;1297;548018;-77
2023/12/02 17:56:46;;;;;;;19.20;10.40;;;;;;;;;;104374;1292;545080;-78
2023/12/02 18:00:30;;;;;;;24.00;12.70;;;;;;;;;;104058;1289;547809;-78
2023/12/02 18:03:45;;;;;;;17.90;10.60;;;;;;;;;;103707;1291;550578;-75
2023/12/02 18:07:18;;;;;;;14.70;8.70;;;;;;;;;;103268;1300;545220;-76
2023/12/02 18:10:55;;;;;;;14.00;7.80;;;;;;;;;;103754;1289;545179;-83
2023/12/02 18:14:39;;;;;;;14.20;7.50;;;;;;;;;;103878;1295;545355;-79
2023/12/02 18:18:12;;;;;;;12.40;6.90;;;;;;;;;;103804;1292;545672;-79
2023/12/02 18:22:26;;;;;;;11.40;6.30;;;;;;;;;;103778;1290;545914;-78
2023/12/02 18:25:25;;;;;;;12.90;7.20;;;;;;;;;;103735;1294;545114;-78
2023/12/02 18:29:07;;;;;;;12.60;6.60;;;;;;;;;;103650;1292;549159;-79
2023/12/02 18:32:40;;;;;;;14.10;7.40;;;;;;;;;;103856;1290;548053;-76
2023/12/02 18:36:24;;;;;;;17.80;11.60;;;;;;;;;;103583;1292;548025;-79
2023/12/02 18:40:15;;;;;;;12.40;6.80;;;;;;;;;;103724;1289;545570;-78
2023/12/02 18:43:40;;;;;;;14.30;8.60;;;;;;;;;;103879;1297;547905;-83
2023/12/02 18:47:26;;;;;;;156.50;61.10;;;;;;;;;;103718;1299;549288;-76
2023/12/02 18:50:57;;;;;;;39.10;25.00;;;;;;;;;;103842;1291;546554;-77
2023/12/02 18:54:43;;;;;;;19.60;11.90;;;;;;;;;;104096;1287;545560;-83
2023/12/02 18:58:04;;;;;;;16.30;9.10;;;;;;;;;;103687;1289;546486;-77
2023/12/02 19:01:59;;;;;;;17.50;9.20;;;;;;;;;;103728;1294;544856;-77
2023/12/02 19:05:21;;;;;;;14.30;8.10;;;;;;;;;;103656;1295;545545;-75
2023/12/02 19:09:15;;;;;;;16.80;9.00;;;;;;;;;;103650;1292;547952;-77
2023/12/02 19:12:30;;;;;;;16.60;9.50;;;;;;;;;;103725;1289;545543;-75
2023/12/02 19:16:12;;;;;;;14.60;8.00;;;;;;;;;;104386;1285;547800;-76
2023/12/02 19:20:16;;;;;;;15.30;8.70;;;;;;;;;;103468;1295;545282;-84
2023/12/02 19:23:32;;;;;;;14.90;8.30;;;;;;;;;;104119;1298;545435;-76
2023/12/02 19:27:07;;;;;;;18.40;10.50;;;;;;;;;;103703;1291;547749;-75
2023/12/02 19:30:36;;;;;;;15.10;8.70;;;;;;;;;;103706;1290;545657;-76
2023/12/02 19:34:14;;;;;;;18.90;10.20;;;;;;;;;;103589;1295;544703;-77
2023/12/02 19:37:58;;;;;;;15.90;9.60;;;;;;;;;;103544;1295;545425;-75
2023/12/02 19:41:37;;;;;;;14.90;9.40;;;;;;;;;;103565;1291;549195;-77
2023/12/02 19:45:08;;;;;;;13.80;7.50;;;;;;;;;;103782;1295;545075;-76
2023/12/02 19:48:46;;;;;;;16.40;8.80;;;;;;;;;;103798;1295;545504;-75
2023/12/02 19:52:28;;;;;;;14.70;8.90;;;;;;;;;;103552;1294;547987;-76
2023/12/02 19:56:08;;;;;;;18.50;10.50;;;;;;;;;;104037;1286;547850;-75
2023/12/02 19:59:59;;;;;;;15.80;9.40;;;;;;;;;;103744;1292;548551;-80
2023/12/02 20:03:16;;;;;;;14.30;8.10;;;;;;;;;;103822;1290;545065;-76
2023/12/02 20:06:54;;;;;;;16.90;9.60;;;;;;;;;;104127;1292;547743;-77
2023/12/02 20:10:31;;;;;;;16.80;8.90;;;;;;;;;;103734;1289;545939;-78
2023/12/02 20:14:20;;;;;;;17.90;10.20;;;;;;;;;;103663;1291;549208;-76
2023/12/02 20:18:06;;;;;;;16.40;9.40;;;;;;;;;;103665;1295;548346;-78
2023/12/02 20:21:21;;;;;;;29.60;15.80;;;;;;;;;;103813;1289;545062;-74
2023/12/02 20:25:00;;;;;;;15.00;8.40;;;;;;;;;;103814;1289;545166;-75
2023/12/02 20:28:35;;;;;;;15.60;8.70;;;;;;;;;;103829;1289;546043;-78
2023/12/02 20:32:15;;;;;;;15.00;8.50;;;;;;;;;;103569;1295;545306;-76
2023/12/02 20:35:52;;;;;;;16.20;9.10;;;;;;;;;;103723;1289;545935;-78
2023/12/02 20:39:28;;;;;;;14.10;7.90;;;;;;;;;;104125;1286;544979;-74
2023/12/02 20:43:10;;;;;;;16.10;8.70;;;;;;;;;;103728;1291;545407;-77
2023/12/02 20:46:43;;;;;;;19.70;11.00;;;;;;;;;;103839;1292;544872;-76
2023/12/02 20:50:28;;;;;;;20.60;9.20;;;;;;;;;;103969;1289;547944;-74
2023/12/02 20:53:58;;;;;;;16.60;9.50;;;;;;;;;;103574;1306;545270;-75
2023/12/02 20:57:36;;;;;;;24.10;12.80;;;;;;;;;;103750;1293;545919;-75
2023/12/02 21:01:18;;;;;;;18.80;10.00;;;;;;;;;;103814;1289;544907;-75
2023/12/02 21:05:12;;;;;;;17.70;10.30;;;;;;;;;;103635;1294;546746;-76
2023/12/02 21:08:55;;;;;;;16.40;9.40;;;;;;;;;;103751;1290;545075;-76
2023/12/02 21:16:25;;;;;;;13.00;7.60;;;;;;;;;;104109;1298;549415;-78
2023/12/02 21:19:46;;;;;;;14.30;8.30;;;;;;;;;;103740;1291;549181;-77